Terminal Aerodrome Forecast
Issued by NWS Sioux Falls, SD

Home | Current Version | Previous Version | Graphics & Text | Print | Product List | Glossary On
Versions: 1 2 3 4 5 6 7 8 9 10 11 12
790
FTUS43 KFSD 070520
TAFFSD
TAF
KFSD 070520Z 0706/0806 29015G23KT P6SM FEW250
     FM071800 29018G26KT P6SM SCT030
     FM080000 30016G27KT P6SM BKN030=

USA.gov is the U.S. government's official web portal to all federal, state and local government web resources and services.